sensor_id;sensor_type;location;lat;lon;timestamp;P1;durP1;ratioP1;P2;durP2;ratioP2
577;SDS011;275;48.492;9.214;2022-11-20T00:01:25;3.85;;;2.95;;
577;SDS011;275;48.492;9.214;2022-11-20T00:03:52;3.50;;;3.20;;
577;SDS011;275;48.492;9.214;2022-11-20T00:06:21;3.75;;;3.28;;
577;SDS011;275;48.492;9.214;2022-11-20T00:08:49;3.40;;;2.85;;
577;SDS011;275;48.492;9.214;2022-11-20T00:11:18;3.58;;;3.25;;
577;SDS011;275;48.492;9.214;2022-11-20T00:13:46;3.72;;;3.33;;
577;SDS011;275;48.492;9.214;2022-11-20T00:16:14;4.57;;;3.30;;
577;SDS011;275;48.492;9.214;2022-11-20T00:18:43;3.45;;;3.10;;
577;SDS011;275;48.492;9.214;2022-11-20T00:21:10;5.00;;;3.53;;
577;SDS011;275;48.492;9.214;2022-11-20T00:23:40;4.50;;;4.10;;
577;SDS011;275;48.492;9.214;2022-11-20T00:26:09;4.60;;;3.65;;
577;SDS011;275;48.492;9.214;2022-11-20T00:28:37;4.35;;;3.95;;
577;SDS011;275;48.492;9.214;2022-11-20T00:31:05;4.90;;;3.80;;
577;SDS011;275;48.492;9.214;2022-11-20T00:33:33;4.63;;;4.05;;
577;SDS011;275;48.492;9.214;2022-11-20T00:36:00;4.72;;;4.22;;
577;SDS011;275;48.492;9.214;2022-11-20T00:38:28;4.93;;;3.65;;
577;SDS011;275;48.492;9.214;2022-11-20T00:40:57;4.80;;;4.30;;
577;SDS011;275;48.492;9.214;2022-11-20T00:43:25;5.03;;;4.43;;
577;SDS011;275;48.492;9.214;2022-11-20T00:45:56;4.95;;;4.55;;
577;SDS011;275;48.492;9.214;2022-11-20T00:48:23;4.88;;;4.38;;
577;SDS011;275;48.492;9.214;2022-11-20T00:50:50;5.85;;;4.63;;
577;SDS011;275;48.492;9.214;2022-11-20T00:53:17;5.00;;;4.50;;
577;SDS011;275;48.492;9.214;2022-11-20T00:55:52;6.60;;;5.03;;
577;SDS011;275;48.492;9.214;2022-11-20T00:58:20;4.93;;;4.43;;
577;SDS011;275;48.492;9.214;2022-11-20T01:00:47;5.30;;;4.80;;
577;SDS011;275;48.492;9.214;2022-11-20T01:03:15;5.85;;;5.07;;
577;SDS011;275;48.492;9.214;2022-11-20T01:05:42;5.63;;;5.13;;
577;SDS011;275;48.492;9.214;2022-11-20T01:08:09;5.55;;;5.13;;
577;SDS011;275;48.492;9.214;2022-11-20T01:10:36;5.45;;;5.05;;
577;SDS011;275;48.492;9.214;2022-11-20T01:13:03;6.50;;;5.90;;
577;SDS011;275;48.492;9.214;2022-11-20T01:16:02;7.65;;;5.90;;
577;SDS011;275;48.492;9.214;2022-11-20T01:18:29;6.28;;;5.25;;
577;SDS011;275;48.492;9.214;2022-11-20T01:20:59;5.68;;;5.13;;
577;SDS011;275;48.492;9.214;2022-11-20T01:23:27;7.22;;;6.55;;
577;SDS011;275;48.492;9.214;2022-11-20T01:25:56;5.82;;;5.32;;
577;SDS011;275;48.492;9.214;2022-11-20T01:28:25;5.80;;;5.30;;
577;SDS011;275;48.492;9.214;2022-11-20T01:30:52;6.38;;;5.55;;
577;SDS011;275;48.492;9.214;2022-11-20T01:33:20;6.03;;;5.43;;
577;SDS011;275;48.492;9.214;2022-11-20T01:35:46;5.25;;;4.80;;
577;SDS011;275;48.492;9.214;2022-11-20T01:38:14;6.22;;;5.68;;
577;SDS011;275;48.492;9.214;2022-11-20T01:40:41;5.47;;;4.97;;
577;SDS011;275;48.492;9.214;2022-11-20T01:43:11;4.63;;;4.18;;
577;SDS011;275;48.492;9.214;2022-11-20T01:48:43;5.30;;;4.80;;
577;SDS011;275;48.492;9.214;2022-11-20T01:51:16;6.03;;;4.90;;
577;SDS011;275;48.492;9.214;2022-11-20T01:53:48;7.28;;;5.82;;
577;SDS011;275;48.492;9.214;2022-11-20T01:56:16;5.85;;;5.35;;
577;SDS011;275;48.492;9.214;2022-11-20T01:58:44;6.05;;;5.22;;
577;SDS011;275;48.492;9.214;2022-11-20T02:01:15;5.80;;;5.20;;
577;SDS011;275;48.492;9.214;2022-11-20T02:03:44;5.40;;;5.00;;
577;SDS011;275;48.492;9.214;2022-11-20T02:06:12;5.03;;;4.53;;
577;SDS011;275;48.492;9.214;2022-11-20T02:08:43;6.28;;;5.28;;
577;SDS011;275;48.492;9.214;2022-11-20T02:11:10;6.85;;;5.60;;
577;SDS011;275;48.492;9.214;2022-11-20T02:13:38;5.05;;;4.65;;
577;SDS011;275;48.492;9.214;2022-11-20T02:16:15;3.75;;;3.30;;
577;SDS011;275;48.492;9.214;2022-11-20T02:18:47;4.63;;;3.92;;
577;SDS011;275;48.492;9.214;2022-11-20T02:21:25;4.35;;;3.47;;
577;SDS011;275;48.492;9.214;2022-11-20T02:24:04;4.43;;;3.72;;
577;SDS011;275;48.492;9.214;2022-11-20T02:26:36;4.72;;;3.50;;
577;SDS011;275;48.492;9.214;2022-11-20T02:29:17;3.97;;;3.58;;
577;SDS011;275;48.492;9.214;2022-11-20T02:31:50;3.85;;;3.38;;
577;SDS011;275;48.492;9.214;2022-11-20T02:34:17;3.40;;;3.10;;
577;SDS011;275;48.492;9.214;2022-11-20T02:36:44;3.75;;;2.90;;
577;SDS011;275;48.492;9.214;2022-11-20T02:39:13;3.50;;;2.65;;
577;SDS011;275;48.492;9.214;2022-11-20T02:41:42;3.40;;;2.80;;
577;SDS011;275;48.492;9.214;2022-11-20T02:44:09;3.20;;;2.90;;
577;SDS011;275;48.492;9.214;2022-11-20T02:46:36;3.97;;;3.42;;
577;SDS011;275;48.492;9.214;2022-11-20T02:49:03;3.15;;;2.65;;
577;SDS011;275;48.492;9.214;2022-11-20T02:51:30;4.97;;;2.80;;
577;SDS011;275;48.492;9.214;2022-11-20T02:53:58;4.30;;;2.75;;
577;SDS011;275;48.492;9.214;2022-11-20T02:56:26;4.65;;;2.92;;
577;SDS011;275;48.492;9.214;2022-11-20T02:58:53;5.07;;;3.05;;
577;SDS011;275;48.492;9.214;2022-11-20T03:01:20;3.50;;;2.90;;
577;SDS011;275;48.492;9.214;2022-11-20T03:03:47;3.40;;;3.10;;
577;SDS011;275;48.492;9.214;2022-11-20T03:06:14;3.50;;;2.85;;
577;SDS011;275;48.492;9.214;2022-11-20T03:08:42;4.65;;;3.15;;
577;SDS011;275;48.492;9.214;2022-11-20T03:11:09;3.17;;;2.83;;
577;SDS011;275;48.492;9.214;2022-11-20T03:13:37;3.40;;;2.67;;
577;SDS011;275;48.492;9.214;2022-11-20T03:16:05;3.80;;;2.60;;
577;SDS011;275;48.492;9.214;2022-11-20T03:18:33;3.78;;;2.83;;
577;SDS011;275;48.492;9.214;2022-11-20T03:20:59;4.03;;;2.45;;
577;SDS011;275;48.492;9.214;2022-11-20T03:23:28;2.85;;;2.47;;
577;SDS011;275;48.492;9.214;2022-11-20T03:25:55;3.33;;;2.80;;
577;SDS011;275;48.492;9.214;2022-11-20T03:28:22;2.90;;;2.47;;
577;SDS011;275;48.492;9.214;2022-11-20T03:30:50;3.30;;;2.65;;
577;SDS011;275;48.492;9.214;2022-11-20T03:33:17;4.68;;;2.95;;
577;SDS011;275;48.492;9.214;2022-11-20T03:35:44;3.70;;;2.60;;
577;SDS011;275;48.492;9.214;2022-11-20T03:38:11;6.13;;;2.90;;
577;SDS011;275;48.492;9.214;2022-11-20T03:40:38;4.40;;;2.97;;
577;SDS011;275;48.492;9.214;2022-11-20T03:43:04;5.50;;;3.25;;
577;SDS011;275;48.492;9.214;2022-11-20T03:45:31;3.30;;;2.47;;
577;SDS011;275;48.492;9.214;2022-11-20T03:47:59;3.00;;;2.60;;
577;SDS011;275;48.492;9.214;2022-11-20T03:50:26;3.35;;;2.65;;
577;SDS011;275;48.492;9.214;2022-11-20T03:52:53;4.90;;;2.30;;
577;SDS011;275;48.492;9.214;2022-11-20T03:55:20;3.45;;;2.83;;
577;SDS011;275;48.492;9.214;2022-11-20T03:57:46;3.20;;;2.80;;
577;SDS011;275;48.492;9.214;2022-11-20T04:00:14;4.55;;;3.05;;
577;SDS011;275;48.492;9.214;2022-11-20T04:02:41;3.38;;;2.50;;
577;SDS011;275;48.492;9.214;2022-11-20T04:05:09;2.90;;;2.40;;
577;SDS011;275;48.492;9.214;2022-11-20T04:07:36;5.20;;;3.20;;
577;SDS011;275;48.492;9.214;2022-11-20T04:10:03;3.08;;;2.78;;
577;SDS011;275;48.492;9.214;2022-11-20T04:12:31;3.17;;;2.58;;
577;SDS011;275;48.492;9.214;2022-11-20T04:14:59;4.13;;;2.80;;
577;SDS011;275;48.492;9.214;2022-11-20T04:17:26;3.25;;;2.80;;
577;SDS011;275;48.492;9.214;2022-11-20T04:19:52;3.38;;;2.60;;
577;SDS011;275;48.492;9.214;2022-11-20T04:22:21;4.05;;;2.90;;
577;SDS011;275;48.492;9.214;2022-11-20T04:24:47;2.78;;;2.30;;
577;SDS011;275;48.492;9.214;2022-11-20T04:27:14;3.45;;;2.45;;
577;SDS011;275;48.492;9.214;2022-11-20T04:29:41;3.33;;;2.35;;
577;SDS011;275;48.492;9.214;2022-11-20T04:32:08;3.38;;;2.33;;
577;SDS011;275;48.492;9.214;2022-11-20T04:34:35;3.33;;;2.22;;
577;SDS011;275;48.492;9.214;2022-11-20T04:37:01;3.40;;;2.67;;
577;SDS011;275;48.492;9.214;2022-11-20T04:39:30;3.10;;;2.55;;
577;SDS011;275;48.492;9.214;2022-11-20T04:41:56;4.40;;;2.47;;
577;SDS011;275;48.492;9.214;2022-11-20T04:44:37;3.25;;;2.40;;
577;SDS011;275;48.492;9.214;2022-11-20T04:47:04;2.85;;;2.40;;
577;SDS011;275;48.492;9.214;2022-11-20T04:49:31;3.05;;;2.25;;
577;SDS011;275;48.492;9.214;2022-11-20T04:51:58;2.83;;;2.00;;
577;SDS011;275;48.492;9.214;2022-11-20T04:54:25;3.45;;;2.20;;
577;SDS011;275;48.492;9.214;2022-11-20T04:56:53;3.72;;;2.22;;
577;SDS011;275;48.492;9.214;2022-11-20T04:59:20;3.55;;;2.10;;
577;SDS011;275;48.492;9.214;2022-11-20T05:01:47;2.55;;;2.30;;
577;SDS011;275;48.492;9.214;2022-11-20T05:04:14;3.78;;;2.45;;
577;SDS011;275;48.492;9.214;2022-11-20T05:06:41;3.13;;;2.10;;
577;SDS011;275;48.492;9.214;2022-11-20T05:09:07;2.80;;;2.00;;
577;SDS011;275;48.492;9.214;2022-11-20T05:11:34;2.60;;;1.95;;
577;SDS011;275;48.492;9.214;2022-11-20T05:14:02;3.75;;;2.20;;
577;SDS011;275;48.492;9.214;2022-11-20T05:16:29;3.30;;;2.58;;
577;SDS011;275;48.492;9.214;2022-11-20T05:18:56;2.75;;;1.85;;
577;SDS011;275;48.492;9.214;2022-11-20T05:21:23;2.88;;;2.33;;
577;SDS011;275;48.492;9.214;2022-11-20T05:23:50;3.95;;;2.45;;
577;SDS011;275;48.492;9.214;2022-11-20T05:26:17;2.70;;;2.45;;
577;SDS011;275;48.492;9.214;2022-11-20T05:28:46;3.63;;;2.17;;
577;SDS011;275;48.492;9.214;2022-11-20T05:31:15;4.15;;;2.60;;
577;SDS011;275;48.492;9.214;2022-11-20T05:33:43;3.85;;;2.80;;
577;SDS011;275;48.492;9.214;2022-11-20T05:36:12;3.33;;;2.10;;
577;SDS011;275;48.492;9.214;2022-11-20T05:38:41;3.35;;;2.00;;
577;SDS011;275;48.492;9.214;2022-11-20T05:41:08;3.88;;;1.90;;
577;SDS011;275;48.492;9.214;2022-11-20T05:43:37;2.63;;;2.00;;
577;SDS011;275;48.492;9.214;2022-11-20T05:46:05;3.63;;;2.53;;
577;SDS011;275;48.492;9.214;2022-11-20T05:48:35;2.90;;;2.05;;
577;SDS011;275;48.492;9.214;2022-11-20T05:51:03;2.92;;;2.50;;
577;SDS011;275;48.492;9.214;2022-11-20T05:53:32;2.90;;;1.90;;
577;SDS011;275;48.492;9.214;2022-11-20T05:56:00;2.55;;;2.10;;
577;SDS011;275;48.492;9.214;2022-11-20T05:58:28;2.67;;;2.10;;
577;SDS011;275;48.492;9.214;2022-11-20T06:01:02;3.30;;;2.50;;
577;SDS011;275;48.492;9.214;2022-11-20T06:03:30;3.10;;;2.03;;
577;SDS011;275;48.492;9.214;2022-11-20T06:06:00;3.95;;;2.72;;
577;SDS011;275;48.492;9.214;2022-11-20T06:08:27;3.45;;;2.40;;
577;SDS011;275;48.492;9.214;2022-11-20T06:10:54;3.33;;;2.22;;
577;SDS011;275;48.492;9.214;2022-11-20T06:13:21;3.90;;;2.30;;
577;SDS011;275;48.492;9.214;2022-11-20T06:15:49;3.03;;;2.38;;
577;SDS011;275;48.492;9.214;2022-11-20T06:18:16;3.35;;;2.15;;
577;SDS011;275;48.492;9.214;2022-11-20T06:20:43;3.40;;;2.40;;
577;SDS011;275;48.492;9.214;2022-11-20T06:23:12;2.83;;;2.35;;
577;SDS011;275;48.492;9.214;2022-11-20T06:25:39;4.30;;;2.30;;
577;SDS011;275;48.492;9.214;2022-11-20T06:28:06;2.70;;;2.30;;
577;SDS011;275;48.492;9.214;2022-11-20T06:30:34;3.10;;;2.30;;
577;SDS011;275;48.492;9.214;2022-11-20T06:33:01;4.47;;;2.85;;
577;SDS011;275;48.492;9.214;2022-11-20T06:35:28;2.55;;;2.05;;
577;SDS011;275;48.492;9.214;2022-11-20T06:37:55;2.70;;;2.20;;
577;SDS011;275;48.492;9.214;2022-11-20T06:40:23;2.40;;;2.00;;
577;SDS011;275;48.492;9.214;2022-11-20T06:42:50;2.60;;;2.40;;
577;SDS011;275;48.492;9.214;2022-11-20T06:45:19;3.83;;;2.90;;
577;SDS011;275;48.492;9.214;2022-11-20T06:47:46;3.30;;;2.40;;
577;SDS011;275;48.492;9.214;2022-11-20T06:50:13;4.75;;;2.50;;
577;SDS011;275;48.492;9.214;2022-11-20T06:52:39;3.00;;;2.42;;
577;SDS011;275;48.492;9.214;2022-11-20T06:55:07;2.60;;;2.03;;
577;SDS011;275;48.492;9.214;2022-11-20T06:57:35;5.75;;;2.50;;
577;SDS011;275;48.492;9.214;2022-11-20T07:00:02;2.90;;;2.03;;
577;SDS011;275;48.492;9.214;2022-11-20T07:02:29;5.10;;;2.40;;
577;SDS011;275;48.492;9.214;2022-11-20T07:04:56;3.20;;;2.10;;
577;SDS011;275;48.492;9.214;2022-11-20T07:07:23;3.78;;;2.28;;
577;SDS011;275;48.492;9.214;2022-11-20T07:09:50;4.40;;;2.30;;
577;SDS011;275;48.492;9.214;2022-11-20T07:12:16;3.85;;;2.40;;
577;SDS011;275;48.492;9.214;2022-11-20T07:14:45;2.65;;;2.10;;
577;SDS011;275;48.492;9.214;2022-11-20T07:17:11;3.40;;;2.38;;
577;SDS011;275;48.492;9.214;2022-11-20T07:19:38;2.50;;;2.20;;
577;SDS011;275;48.492;9.214;2022-11-20T07:22:05;3.13;;;2.47;;
577;SDS011;275;48.492;9.214;2022-11-20T07:24:32;3.13;;;1.92;;
577;SDS011;275;48.492;9.214;2022-11-20T07:26:59;5.80;;;2.38;;
577;SDS011;275;48.492;9.214;2022-11-20T07:29:25;3.13;;;1.95;;
577;SDS011;275;48.492;9.214;2022-11-20T07:31:54;3.55;;;2.00;;
577;SDS011;275;48.492;9.214;2022-11-20T07:34:21;2.78;;;1.83;;
577;SDS011;275;48.492;9.214;2022-11-20T07:36:48;3.47;;;2.50;;
577;SDS011;275;48.492;9.214;2022-11-20T07:39:15;3.58;;;2.22;;
577;SDS011;275;48.492;9.214;2022-11-20T07:41:42;4.05;;;2.03;;
577;SDS011;275;48.492;9.214;2022-11-20T07:44:09;3.40;;;2.25;;
577;SDS011;275;48.492;9.214;2022-11-20T07:46:35;3.00;;;2.20;;
577;SDS011;275;48.492;9.214;2022-11-20T07:49:03;2.40;;;1.50;;
577;SDS011;275;48.492;9.214;2022-11-20T07:51:30;4.03;;;1.95;;
577;SDS011;275;48.492;9.214;2022-11-20T07:53:57;2.65;;;2.08;;
577;SDS011;275;48.492;9.214;2022-11-20T07:56:24;2.70;;;1.85;;
577;SDS011;275;48.492;9.214;2022-11-20T07:58:50;2.53;;;1.90;;
577;SDS011;275;48.492;9.214;2022-11-20T08:01:17;3.13;;;1.83;;
577;SDS011;275;48.492;9.214;2022-11-20T08:03:44;3.08;;;2.03;;
577;SDS011;275;48.492;9.214;2022-11-20T08:06:12;2.83;;;2.33;;
577;SDS011;275;48.492;9.214;2022-11-20T08:08:39;3.75;;;2.53;;
577;SDS011;275;48.492;9.214;2022-11-20T08:11:06;3.17;;;2.00;;
577;SDS011;275;48.492;9.214;2022-11-20T08:13:50;2.63;;;2.05;;
577;SDS011;275;48.492;9.214;2022-11-20T08:16:34;2.83;;;1.60;;
577;SDS011;275;48.492;9.214;2022-11-20T08:19:01;2.30;;;1.60;;
577;SDS011;275;48.492;9.214;2022-11-20T08:21:30;4.00;;;2.03;;
577;SDS011;275;48.492;9.214;2022-11-20T08:23:58;2.53;;;1.63;;
577;SDS011;275;48.492;9.214;2022-11-20T08:26:25;2.80;;;2.20;;
577;SDS011;275;48.492;9.214;2022-11-20T08:28:53;2.30;;;1.70;;
577;SDS011;275;48.492;9.214;2022-11-20T08:31:20;3.80;;;2.03;;
577;SDS011;275;48.492;9.214;2022-11-20T08:33:48;2.45;;;1.60;;
577;SDS011;275;48.492;9.214;2022-11-20T08:36:15;2.80;;;1.60;;
577;SDS011;275;48.492;9.214;2022-11-20T08:38:46;2.50;;;1.52;;
577;SDS011;275;48.492;9.214;2022-11-20T08:41:13;2.55;;;1.70;;
577;SDS011;275;48.492;9.214;2022-11-20T08:43:50;2.10;;;1.40;;
577;SDS011;275;48.492;9.214;2022-11-20T08:46:18;2.30;;;1.50;;
577;SDS011;275;48.492;9.214;2022-11-20T08:48:45;2.38;;;1.70;;
577;SDS011;275;48.492;9.214;2022-11-20T08:51:12;2.70;;;1.73;;
577;SDS011;275;48.492;9.214;2022-11-20T08:53:40;2.38;;;1.70;;
577;SDS011;275;48.492;9.214;2022-11-20T08:56:08;2.30;;;1.40;;
577;SDS011;275;48.492;9.214;2022-11-20T08:58:36;3.58;;;2.10;;
577;SDS011;275;48.492;9.214;2022-11-20T09:01:03;3.13;;;1.70;;
577;SDS011;275;48.492;9.214;2022-11-20T09:03:30;2.90;;;1.60;;
577;SDS011;275;48.492;9.214;2022-11-20T09:05:57;2.15;;;1.30;;
577;SDS011;275;48.492;9.214;2022-11-20T09:08:25;2.72;;;1.65;;
577;SDS011;275;48.492;9.214;2022-11-20T09:10:52;2.20;;;1.40;;
577;SDS011;275;48.492;9.214;2022-11-20T09:13:21;2.30;;;1.50;;
577;SDS011;275;48.492;9.214;2022-11-20T09:15:52;2.35;;;1.55;;
577;SDS011;275;48.492;9.214;2022-11-20T09:18:19;2.38;;;1.50;;
577;SDS011;275;48.492;9.214;2022-11-20T09:20:46;2.72;;;1.75;;
577;SDS011;275;48.492;9.214;2022-11-20T09:23:13;3.00;;;2.08;;
577;SDS011;275;48.492;9.214;2022-11-20T09:25:41;2.85;;;1.80;;
577;SDS011;275;48.492;9.214;2022-11-20T09:28:08;2.70;;;1.50;;
577;SDS011;275;48.492;9.214;2022-11-20T09:30:36;3.13;;;1.75;;
577;SDS011;275;48.492;9.214;2022-11-20T09:33:04;2.53;;;1.85;;
577;SDS011;275;48.492;9.214;2022-11-20T09:35:31;2.10;;;1.50;;
577;SDS011;275;48.492;9.214;2022-11-20T09:38:03;2.72;;;1.85;;
577;SDS011;275;48.492;9.214;2022-11-20T09:40:30;2.50;;;1.55;;
577;SDS011;275;48.492;9.214;2022-11-20T09:42:59;2.90;;;1.90;;
577;SDS011;275;48.492;9.214;2022-11-20T09:45:37;2.20;;;1.60;;
577;SDS011;275;48.492;9.214;2022-11-20T09:48:18;2.88;;;1.80;;
577;SDS011;275;48.492;9.214;2022-11-20T09:50:56;2.30;;;1.80;;
577;SDS011;275;48.492;9.214;2022-11-20T09:53:29;3.38;;;1.55;;
577;SDS011;275;48.492;9.214;2022-11-20T09:56:01;3.95;;;1.95;;
577;SDS011;275;48.492;9.214;2022-11-20T09:58:31;2.67;;;1.70;;
577;SDS011;275;48.492;9.214;2022-11-20T10:01:03;2.50;;;1.90;;
577;SDS011;275;48.492;9.214;2022-11-20T10:03:37;2.50;;;1.88;;
577;SDS011;275;48.492;9.214;2022-11-20T10:06:12;2.70;;;2.22;;
577;SDS011;275;48.492;9.214;2022-11-20T10:08:45;2.05;;;1.50;;
577;SDS011;275;48.492;9.214;2022-11-20T10:11:19;3.10;;;2.17;;
577;SDS011;275;48.492;9.214;2022-11-20T10:13:55;2.50;;;1.90;;
577;SDS011;275;48.492;9.214;2022-11-20T10:16:36;2.65;;;2.00;;
577;SDS011;275;48.492;9.214;2022-11-20T10:19:18;2.65;;;1.90;;
577;SDS011;275;48.492;9.214;2022-11-20T10:22:02;2.40;;;1.77;;
577;SDS011;275;48.492;9.214;2022-11-20T10:24:42;2.40;;;1.70;;
577;SDS011;275;48.492;9.214;2022-11-20T10:27:23;2.30;;;1.70;;
577;SDS011;275;48.492;9.214;2022-11-20T10:30:10;2.20;;;1.70;;
577;SDS011;275;48.492;9.214;2022-11-20T10:32:40;3.03;;;2.20;;
577;SDS011;275;48.492;9.214;2022-11-20T10:35:14;2.85;;;1.58;;
577;SDS011;275;48.492;9.214;2022-11-20T10:37:46;2.63;;;2.05;;
577;SDS011;275;48.492;9.214;2022-11-20T10:40:21;3.13;;;1.65;;
577;SDS011;275;48.492;9.214;2022-11-20T10:42:54;2.80;;;2.00;;
577;SDS011;275;48.492;9.214;2022-11-20T10:45:30;2.33;;;1.60;;
577;SDS011;275;48.492;9.214;2022-11-20T10:48:10;3.78;;;2.55;;
577;SDS011;275;48.492;9.214;2022-11-20T10:50:46;2.67;;;1.98;;
577;SDS011;275;48.492;9.214;2022-11-20T10:53:23;3.03;;;2.15;;
577;SDS011;275;48.492;9.214;2022-11-20T10:56:07;2.60;;;1.85;;
577;SDS011;275;48.492;9.214;2022-11-20T10:58:42;3.10;;;2.40;;
577;SDS011;275;48.492;9.214;2022-11-20T11:01:16;2.70;;;2.10;;
577;SDS011;275;48.492;9.214;2022-11-20T11:03:47;3.03;;;2.15;;
577;SDS011;275;48.492;9.214;2022-11-20T11:06:17;2.85;;;1.95;;
577;SDS011;275;48.492;9.214;2022-11-20T11:08:53;2.72;;;2.10;;
577;SDS011;275;48.492;9.214;2022-11-20T11:11:23;4.93;;;2.20;;
577;SDS011;275;48.492;9.214;2022-11-20T11:13:51;3.63;;;2.60;;
577;SDS011;275;48.492;9.214;2022-11-20T11:16:22;2.40;;;2.03;;
577;SDS011;275;48.492;9.214;2022-11-20T11:18:51;2.40;;;1.60;;
577;SDS011;275;48.492;9.214;2022-11-20T11:21:29;3.63;;;2.00;;
577;SDS011;275;48.492;9.214;2022-11-20T11:23:57;2.65;;;2.05;;
577;SDS011;275;48.492;9.214;2022-11-20T11:26:25;3.70;;;2.00;;
577;SDS011;275;48.492;9.214;2022-11-20T11:28:54;4.47;;;2.35;;
577;SDS011;275;48.492;9.214;2022-11-20T11:31:22;2.63;;;1.75;;
577;SDS011;275;48.492;9.214;2022-11-20T11:33:51;2.90;;;1.98;;
577;SDS011;275;48.492;9.214;2022-11-20T11:36:19;3.80;;;2.10;;
577;SDS011;275;48.492;9.214;2022-11-20T11:38:50;2.45;;;1.88;;
577;SDS011;275;48.492;9.214;2022-11-20T11:41:20;2.45;;;1.60;;
577;SDS011;275;48.492;9.214;2022-11-20T11:43:52;3.35;;;1.92;;
577;SDS011;275;48.492;9.214;2022-11-20T11:46:38;3.30;;;1.90;;
577;SDS011;275;48.492;9.214;2022-11-20T11:49:14;2.80;;;2.00;;
577;SDS011;275;48.492;9.214;2022-11-20T11:51:46;4.85;;;1.58;;
577;SDS011;275;48.492;9.214;2022-11-20T11:54:37;2.97;;;1.38;;
577;SDS011;275;48.492;9.214;2022-11-20T11:57:10;2.97;;;1.60;;
577;SDS011;275;48.492;9.214;2022-11-20T11:59:46;3.75;;;2.00;;
577;SDS011;275;48.492;9.214;2022-11-20T12:02:33;2.95;;;1.50;;
577;SDS011;275;48.492;9.214;2022-11-20T12:05:08;2.95;;;1.40;;
577;SDS011;275;48.492;9.214;2022-11-20T12:07:45;4.60;;;1.55;;
577;SDS011;275;48.492;9.214;2022-11-20T12:10:19;2.50;;;1.63;;
577;SDS011;275;48.492;9.214;2022-11-20T12:12:50;3.45;;;1.95;;
577;SDS011;275;48.492;9.214;2022-11-20T12:15:23;4.25;;;1.85;;
577;SDS011;275;48.492;9.214;2022-11-20T12:17:54;4.05;;;2.50;;
577;SDS011;275;48.492;9.214;2022-11-20T12:20:24;2.78;;;1.65;;
577;SDS011;275;48.492;9.214;2022-11-20T12:22:56;2.20;;;1.30;;
577;SDS011;275;48.492;9.214;2022-11-20T12:25:31;2.40;;;1.83;;
577;SDS011;275;48.492;9.214;2022-11-20T12:30:58;3.35;;;2.13;;
577;SDS011;275;48.492;9.214;2022-11-20T12:33:41;3.13;;;2.00;;
577;SDS011;275;48.492;9.214;2022-11-20T12:36:30;3.90;;;2.47;;
577;SDS011;275;48.492;9.214;2022-11-20T12:39:07;3.10;;;2.10;;
577;SDS011;275;48.492;9.214;2022-11-20T12:41:54;3.28;;;1.95;;
577;SDS011;275;48.492;9.214;2022-11-20T12:48:26;2.92;;;2.10;;
577;SDS011;275;48.492;9.214;2022-11-20T12:51:13;2.60;;;1.90;;
577;SDS011;275;48.492;9.214;2022-11-20T12:53:54;2.55;;;1.52;;
577;SDS011;275;48.492;9.214;2022-11-20T12:56:34;2.80;;;1.75;;
577;SDS011;275;48.492;9.214;2022-11-20T12:59:11;2.90;;;2.05;;
577;SDS011;275;48.492;9.214;2022-11-20T13:01:49;3.40;;;2.28;;
577;SDS011;275;48.492;9.214;2022-11-20T13:04:23;4.28;;;2.10;;
577;SDS011;275;48.492;9.214;2022-11-20T13:07:06;3.03;;;1.88;;
577;SDS011;275;48.492;9.214;2022-11-20T13:09:38;3.25;;;1.60;;
577;SDS011;275;48.492;9.214;2022-11-20T13:12:10;2.55;;;1.80;;
577;SDS011;275;48.492;9.214;2022-11-20T13:14:42;3.20;;;1.98;;
577;SDS011;275;48.492;9.214;2022-11-20T13:17:16;3.38;;;1.98;;
577;SDS011;275;48.492;9.214;2022-11-20T13:19:51;3.58;;;1.60;;
577;SDS011;275;48.492;9.214;2022-11-20T13:22:26;3.65;;;2.45;;
577;SDS011;275;48.492;9.214;2022-11-20T13:24:55;3.33;;;1.88;;
577;SDS011;275;48.492;9.214;2022-11-20T13:27:22;3.80;;;2.08;;
577;SDS011;275;48.492;9.214;2022-11-20T13:30:00;3.47;;;2.05;;
577;SDS011;275;48.492;9.214;2022-11-20T13:32:47;4.45;;;2.47;;
577;SDS011;275;48.492;9.214;2022-11-20T13:35:23;3.88;;;1.85;;
577;SDS011;275;48.492;9.214;2022-11-20T13:37:59;5.30;;;2.50;;
577;SDS011;275;48.492;9.214;2022-11-20T13:40:28;3.00;;;2.03;;
577;SDS011;275;48.492;9.214;2022-11-20T13:43:00;3.97;;;1.83;;
577;SDS011;275;48.492;9.214;2022-11-20T13:45:30;4.47;;;2.15;;
577;SDS011;275;48.492;9.214;2022-11-20T13:48:01;3.25;;;2.47;;
577;SDS011;275;48.492;9.214;2022-11-20T13:50:40;4.18;;;2.55;;
577;SDS011;275;48.492;9.214;2022-11-20T13:53:15;3.20;;;2.00;;
577;SDS011;275;48.492;9.214;2022-11-20T13:56:00;2.50;;;1.40;;
577;SDS011;275;48.492;9.214;2022-11-20T13:58:35;2.90;;;1.60;;
577;SDS011;275;48.492;9.214;2022-11-20T14:01:14;2.47;;;1.70;;
577;SDS011;275;48.492;9.214;2022-11-20T14:03:43;3.08;;;1.70;;
577;SDS011;275;48.492;9.214;2022-11-20T14:06:11;2.75;;;1.50;;
577;SDS011;275;48.492;9.214;2022-11-20T14:08:44;3.90;;;2.10;;
577;SDS011;275;48.492;9.214;2022-11-20T14:11:15;3.58;;;1.30;;
577;SDS011;275;48.492;9.214;2022-11-20T14:13:54;3.97;;;1.83;;
577;SDS011;275;48.492;9.214;2022-11-20T14:16:27;3.85;;;1.85;;
577;SDS011;275;48.492;9.214;2022-11-20T14:18:57;4.00;;;1.75;;
577;SDS011;275;48.492;9.214;2022-11-20T14:21:37;2.75;;;1.55;;
577;SDS011;275;48.492;9.214;2022-11-20T14:24:04;3.40;;;1.60;;
577;SDS011;275;48.492;9.214;2022-11-20T14:26:33;2.90;;;1.50;;
577;SDS011;275;48.492;9.214;2022-11-20T14:29:01;3.78;;;1.77;;
577;SDS011;275;48.492;9.214;2022-11-20T14:31:28;4.95;;;2.10;;
577;SDS011;275;48.492;9.214;2022-11-20T14:33:55;4.05;;;1.98;;
577;SDS011;275;48.492;9.214;2022-11-20T14:36:23;2.85;;;1.70;;
577;SDS011;275;48.492;9.214;2022-11-20T14:38:51;2.58;;;1.80;;
577;SDS011;275;48.492;9.214;2022-11-20T14:41:19;3.03;;;2.17;;
577;SDS011;275;48.492;9.214;2022-11-20T14:43:50;2.95;;;2.15;;
577;SDS011;275;48.492;9.214;2022-11-20T14:46:20;3.65;;;2.10;;
577;SDS011;275;48.492;9.214;2022-11-20T14:48:48;5.47;;;1.95;;
577;SDS011;275;48.492;9.214;2022-11-20T14:51:30;5.90;;;2.00;;
577;SDS011;275;48.492;9.214;2022-11-20T14:54:07;3.30;;;2.20;;
577;SDS011;275;48.492;9.214;2022-11-20T14:56:36;4.13;;;2.63;;
577;SDS011;275;48.492;9.214;2022-11-20T14:59:04;2.60;;;2.25;;
577;SDS011;275;48.492;9.214;2022-11-20T15:01:32;2.88;;;2.03;;
577;SDS011;275;48.492;9.214;2022-11-20T15:04:00;2.88;;;2.00;;
577;SDS011;275;48.492;9.214;2022-11-20T15:06:30;2.80;;;2.08;;
577;SDS011;275;48.492;9.214;2022-11-20T15:08:58;3.00;;;2.08;;
577;SDS011;275;48.492;9.214;2022-11-20T15:11:27;4.20;;;2.20;;
577;SDS011;275;48.492;9.214;2022-11-20T15:13:56;4.63;;;2.92;;
577;SDS011;275;48.492;9.214;2022-11-20T15:16:29;4.75;;;3.20;;
577;SDS011;275;48.492;9.214;2022-11-20T15:18:56;5.15;;;2.90;;
577;SDS011;275;48.492;9.214;2022-11-20T15:21:23;3.45;;;2.65;;
577;SDS011;275;48.492;9.214;2022-11-20T15:23:50;4.20;;;2.80;;
577;SDS011;275;48.492;9.214;2022-11-20T15:26:20;3.75;;;2.30;;
577;SDS011;275;48.492;9.214;2022-11-20T15:28:50;4.07;;;2.95;;
577;SDS011;275;48.492;9.214;2022-11-20T15:31:18;3.33;;;1.90;;
577;SDS011;275;48.492;9.214;2022-11-20T15:33:48;5.50;;;2.53;;
577;SDS011;275;48.492;9.214;2022-11-20T15:36:15;4.88;;;3.13;;
577;SDS011;275;48.492;9.214;2022-11-20T15:38:42;4.85;;;3.60;;
577;SDS011;275;48.492;9.214;2022-11-20T15:41:09;2.97;;;2.40;;
577;SDS011;275;48.492;9.214;2022-11-20T15:43:36;5.57;;;3.58;;
577;SDS011;275;48.492;9.214;2022-11-20T15:46:04;6.50;;;3.75;;
577;SDS011;275;48.492;9.214;2022-11-20T15:48:35;7.80;;;5.18;;
577;SDS011;275;48.492;9.214;2022-11-20T15:51:07;7.50;;;4.43;;
577;SDS011;275;48.492;9.214;2022-11-20T15:53:42;8.98;;;6.07;;
577;SDS011;275;48.492;9.214;2022-11-20T15:56:09;5.53;;;4.68;;
577;SDS011;275;48.492;9.214;2022-11-20T15:58:38;7.70;;;5.82;;
577;SDS011;275;48.492;9.214;2022-11-20T16:01:05;4.95;;;4.45;;
577;SDS011;275;48.492;9.214;2022-11-20T16:03:36;4.35;;;3.00;;
577;SDS011;275;48.492;9.214;2022-11-20T16:06:03;3.92;;;2.15;;
577;SDS011;275;48.492;9.214;2022-11-20T16:08:32;4.60;;;3.85;;
577;SDS011;275;48.492;9.214;2022-11-20T16:10:59;3.60;;;2.80;;
577;SDS011;275;48.492;9.214;2022-11-20T16:13:25;2.90;;;1.90;;